createdAt,value
2019-06-27T01:19:15.211Z,2.57
2019-06-27T01:22:11.616Z,2.70
2019-06-27T01:25:00.326Z,2.97
2019-06-27T01:27:51.265Z,2.63
2019-06-27T01:37:42.574Z,2.80
2019-06-27T01:40:29.969Z,2.40
2019-06-27T01:43:17.868Z,2.60
2019-06-27T01:46:05.799Z,2.80
2019-06-27T02:00:06.205Z,2.40
2019-06-27T02:03:12.505Z,2.43
2019-06-27T02:23:36.697Z,2.00
2019-06-27T02:44:31.481Z,1.60
2019-06-27T02:47:22.554Z,1.67
2019-06-27T03:22:25.533Z,1.20
2019-06-27T03:25:12.452Z,1.23
2019-06-27T03:27:59.548Z,1.23
2019-06-27T03:30:46.883Z,1.13
2019-06-27T03:33:34.789Z,0.97
2019-06-27T03:36:22.001Z,1.10
2019-06-27T03:39:09.697Z,1.10
2019-06-27T03:41:57.389Z,1.63
2019-06-27T03:44:45.193Z,1.80
2019-06-27T03:47:32.465Z,1.30
2019-06-27T03:50:20.121Z,1.50
2019-06-27T03:53:07.957Z,1.37
2019-06-27T03:55:55.762Z,1.20
2019-06-27T03:58:43.517Z,1.20
2019-06-27T04:01:31.672Z,1.10
2019-06-27T04:04:20.351Z,1.30
2019-06-27T04:07:07.496Z,1.30
2019-06-27T04:09:55.197Z,1.13
2019-06-27T04:12:43.172Z,1.07
2019-06-27T04:15:30.786Z,1.10
2019-06-27T04:18:18.531Z,0.90
2019-06-27T04:21:05.898Z,1.20
2019-06-27T04:23:53.271Z,1.20
2019-06-27T04:26:40.828Z,0.93
2019-06-27T04:29:34.128Z,0.90
2019-06-27T04:32:17.257Z,0.93
2019-06-27T04:35:04.925Z,0.90
2019-06-27T04:37:52.789Z,1.00
2019-06-27T04:40:40.360Z,0.80
2019-06-27T04:43:28.097Z,0.90
2019-06-27T04:46:15.296Z,0.90
2019-06-27T04:49:02.527Z,0.87
2019-06-27T04:51:50.503Z,1.00
2019-06-27T04:54:38.373Z,0.80
2019-06-27T04:57:25.571Z,0.90
2019-06-27T05:00:15.862Z,0.90
2019-06-27T05:03:02.976Z,1.07
2019-06-27T05:05:50.583Z,0.83
2019-06-27T05:08:37.864Z,0.90
2019-06-27T05:11:25.741Z,1.00
2019-06-27T05:14:13.448Z,1.00
2019-06-27T05:17:02.625Z,1.00
2019-06-27T05:19:49.961Z,1.00
2019-06-27T05:22:37.608Z,0.90
2019-06-27T05:25:25.264Z,0.87
2019-06-27T05:28:12.937Z,1.37
2019-06-27T05:31:00.785Z,1.00
2019-06-27T05:33:48.616Z,0.70
2019-06-27T05:36:36.516Z,0.90
2019-06-27T05:39:24.118Z,0.93
2019-06-27T05:42:11.663Z,0.90
2019-06-27T05:44:58.944Z,1.20
2019-06-27T05:47:47.081Z,0.80
2019-06-27T05:50:34.627Z,0.97
2019-06-27T05:53:21.862Z,0.93
2019-06-27T05:56:09.343Z,0.90
2019-06-27T05:59:00.471Z,0.70
2019-06-27T06:01:47.690Z,0.90
2019-06-27T06:04:35.312Z,1.20
2019-06-27T06:07:24.250Z,1.00
2019-06-27T06:10:11.474Z,0.70
2019-06-27T06:12:58.895Z,0.83
2019-06-27T06:15:46.385Z,0.80
2019-06-27T06:18:33.958Z,1.00
2019-06-27T06:21:22.144Z,1.00
2019-06-27T06:24:09.700Z,0.77
2019-06-27T06:26:57.354Z,0.80
2019-06-27T06:29:44.919Z,0.80
2019-06-27T06:32:32.886Z,0.90
2019-06-27T06:35:20.721Z,0.90
2019-06-27T06:38:08.235Z,0.70
2019-06-27T06:40:55.914Z,0.70
2019-06-27T06:43:43.767Z,0.83
2019-06-27T06:46:31.333Z,0.80
2019-06-27T06:49:19.587Z,0.80
2019-06-27T06:52:07.259Z,0.80
2019-06-27T06:54:54.852Z,0.80
2019-06-27T06:57:42.412Z,0.77
2019-06-27T07:00:29.926Z,0.70
2019-06-27T07:03:17.772Z,0.70
2019-06-27T07:06:05.252Z,0.60
2019-06-27T07:08:52.825Z,0.83
2019-06-27T07:11:40.869Z,0.70
2019-06-27T07:14:28.225Z,1.50
2019-06-27T07:17:16.053Z,3.20
2019-06-27T07:20:04.208Z,3.27
2019-06-27T07:22:51.686Z,1.67
2019-06-27T07:25:39.648Z,1.10
2019-06-27T07:28:26.842Z,0.63
2019-06-27T07:31:18.167Z,0.70
2019-06-27T07:34:03.520Z,0.80
2019-06-27T07:36:51.160Z,0.60
2019-06-27T07:39:38.777Z,0.70
2019-06-27T07:42:26.142Z,1.27
2019-06-27T07:45:14.284Z,0.57
2019-06-27T07:48:01.724Z,0.90
2019-06-27T07:50:49.813Z,0.87
2019-06-27T07:53:37.551Z,0.60
2019-06-27T07:56:25.958Z,0.60
2019-06-27T07:59:13.369Z,0.80
2019-06-27T08:02:01.245Z,0.73
2019-06-27T08:04:48.947Z,0.63
2019-06-27T08:07:37.052Z,0.53
2019-06-27T08:10:24.636Z,0.50
2019-06-27T08:13:12.469Z,0.50
2019-06-27T08:16:00.342Z,0.50
2019-06-27T08:18:48.044Z,0.87
2019-06-27T08:21:35.161Z,0.70
2019-06-27T08:24:23.099Z,0.60
2019-06-27T08:27:10.725Z,0.90
2019-06-27T08:29:58.211Z,0.50
2019-06-27T08:32:45.797Z,0.67
2019-06-27T08:35:33.720Z,0.70
2019-06-27T08:38:21.276Z,0.60
2019-06-27T08:41:08.586Z,0.53
2019-06-27T08:43:56.131Z,0.60
2019-06-27T08:46:43.772Z,0.60
2019-06-27T08:49:31.737Z,0.43
2019-06-27T08:52:19.029Z,0.93
2019-06-27T08:55:06.948Z,0.60
2019-06-27T08:57:54.581Z,0.40
2019-06-27T09:00:45.742Z,0.53
2019-06-27T09:03:31.189Z,0.70
2019-06-27T09:06:21.136Z,0.70
2019-06-27T09:09:08.089Z,0.70
2019-06-27T09:11:55.797Z,1.00
2019-06-27T09:14:42.946Z,1.40
2019-06-27T09:17:31.062Z,0.77
2019-06-27T09:20:18.903Z,0.50
2019-06-27T09:23:06.963Z,0.60
2019-06-27T09:25:55.205Z,0.70
2019-06-27T09:28:42.980Z,0.70
2019-06-27T09:31:30.702Z,0.70
2019-06-27T09:34:21.405Z,0.60
2019-06-27T09:37:07.342Z,0.40
2019-06-27T09:39:55.150Z,0.40
2019-06-27T09:42:42.525Z,0.40
2019-06-27T09:45:30.914Z,0.57
2019-06-27T09:48:18.460Z,0.93
2019-06-27T09:51:05.754Z,1.00
2019-06-27T09:53:53.501Z,0.70
2019-06-27T09:56:41.479Z,0.57
2019-06-27T09:59:28.975Z,0.63
2019-06-27T10:02:16.710Z,0.30
2019-06-27T10:05:04.495Z,0.80
2019-06-27T10:07:52.034Z,0.50
2019-06-27T10:10:39.906Z,0.30
2019-06-27T10:13:27.620Z,0.60
2019-06-27T10:16:15.076Z,0.40
2019-06-27T10:19:02.489Z,0.47
2019-06-27T10:21:50.297Z,0.30
2019-06-27T10:24:37.788Z,0.60
2019-06-27T10:27:25.169Z,0.40
2019-06-27T10:30:14.650Z,0.33
2019-06-27T10:33:01.916Z,0.40
2019-06-27T10:35:49.910Z,0.30
2019-06-27T10:38:37.506Z,0.40
2019-06-27T10:41:25.388Z,0.30
2019-06-27T10:44:13.381Z,0.40
2019-06-27T10:47:00.699Z,0.83
2019-06-27T10:49:48.327Z,0.50
2019-06-27T10:52:36.090Z,0.50
2019-06-27T10:55:23.896Z,0.40
2019-06-27T10:58:11.913Z,0.70
2019-06-27T11:01:00.190Z,0.60
2019-06-27T11:03:47.661Z,0.33
2019-06-27T11:06:35.509Z,0.30
2019-06-27T11:09:23.279Z,0.37
2019-06-27T11:12:10.799Z,1.10
2019-06-27T11:14:59.886Z,0.53
2019-06-27T11:17:47.091Z,0.33
2019-06-27T11:20:34.946Z,0.40
2019-06-27T11:23:22.470Z,0.30
2019-06-27T11:26:10.348Z,0.30
2019-06-27T11:28:58.152Z,0.30
2019-06-27T11:31:45.826Z,0.60
2019-06-27T11:34:35.128Z,0.37
2019-06-27T11:37:22.937Z,0.57
2019-06-27T11:40:12.565Z,0.30
2019-06-27T11:43:00.134Z,0.37
2019-06-27T11:45:47.861Z,0.40
2019-06-27T11:48:35.397Z,0.40
2019-06-27T11:51:22.664Z,0.30
2019-06-27T11:54:10.946Z,0.60
2019-06-27T11:56:58.783Z,0.30
2019-06-27T11:59:46.728Z,0.60
2019-06-27T12:02:34.251Z,0.60
2019-06-27T12:05:21.792Z,1.17
2019-06-27T12:08:11.021Z,0.50
2019-06-27T12:10:58.800Z,0.40
2019-06-27T12:13:46.374Z,0.40
2019-06-27T12:16:34.447Z,0.50
2019-06-27T12:19:22.638Z,0.50
2019-06-27T12:22:10.561Z,0.73
2019-06-27T12:24:58.245Z,0.60
2019-06-27T12:27:46.204Z,0.40
2019-06-27T12:30:33.699Z,0.60
2019-06-27T12:33:21.601Z,0.47
2019-06-27T12:36:09.364Z,0.60
2019-06-27T12:38:56.896Z,0.50
2019-06-27T12:41:44.570Z,0.40
2019-06-27T12:44:32.107Z,0.40
2019-06-27T12:47:19.991Z,0.20
2019-06-27T12:50:07.444Z,0.33
2019-06-27T12:52:54.948Z,0.40
2019-06-27T12:55:42.783Z,0.60
2019-06-27T12:58:30.892Z,0.53
2019-06-27T13:01:18.184Z,0.57
2019-06-27T13:04:19.108Z,0.60
2019-06-27T13:06:54.748Z,0.50
2019-06-27T13:09:42.019Z,0.60
2019-06-27T13:12:29.685Z,0.43
2019-06-27T13:15:18.580Z,0.53
2019-06-27T13:18:06.344Z,0.40
2019-06-27T13:20:58.557Z,0.63
2019-06-27T13:23:42.414Z,0.30
2019-06-27T13:26:30.095Z,0.40
2019-06-27T13:29:18.108Z,0.50
2019-06-27T13:32:06.200Z,0.70
2019-06-27T13:34:53.305Z,0.50
2019-06-27T13:37:40.908Z,0.53
2019-06-27T13:40:28.440Z,0.60
2019-06-27T13:43:16.438Z,0.50
2019-06-27T13:46:04.172Z,0.30
2019-06-27T13:48:52.065Z,0.30
2019-06-27T13:51:39.740Z,0.50
2019-06-27T13:54:27.175Z,0.40
2019-06-27T13:57:14.449Z,2.20
2019-06-27T14:00:01.895Z,0.37
2019-06-27T14:02:49.598Z,0.70
2019-06-27T14:05:37.114Z,0.70
2019-06-27T14:08:26.334Z,0.50
2019-06-27T14:11:13.635Z,0.50
2019-06-27T14:14:01.559Z,0.50
2019-06-27T14:16:49.871Z,0.70
2019-06-27T14:19:37.336Z,0.60
2019-06-27T14:22:33.369Z,1.43
2019-06-27T14:25:14.099Z,0.60
2019-06-27T14:28:01.965Z,0.60
2019-06-27T14:30:49.766Z,0.20
2019-06-27T14:33:37.767Z,0.37
2019-06-27T14:36:25.335Z,0.60
2019-06-27T14:39:12.561Z,0.40
2019-06-27T14:42:00.050Z,0.30
2019-06-27T14:44:47.329Z,0.30
2019-06-27T14:47:35.438Z,0.50
2019-06-27T14:50:22.664Z,0.40
2019-06-27T14:53:09.935Z,0.40
2019-06-27T14:55:57.564Z,0.37
2019-06-27T14:58:45.220Z,0.20
2019-06-27T15:01:32.902Z,0.30
2019-06-27T15:04:20.540Z,0.40
2019-06-27T15:07:08.776Z,0.40
2019-06-27T15:09:56.246Z,0.50
2019-06-27T15:12:56.360Z,0.40
2019-06-27T15:15:32.675Z,0.40
2019-06-27T15:18:20.486Z,0.30
2019-06-27T15:21:08.766Z,0.20
2019-06-27T15:23:56.253Z,0.57
2019-06-27T15:26:44.029Z,0.47
2019-06-27T15:29:32.154Z,0.40
2019-06-27T15:32:19.673Z,0.53
2019-06-27T15:35:07.815Z,0.50
2019-06-27T15:37:55.025Z,0.30
2019-06-27T15:40:43.516Z,0.10
2019-06-27T15:43:30.945Z,0.37
2019-06-27T15:46:18.143Z,0.20
2019-06-27T15:49:05.984Z,0.30
2019-06-27T15:51:53.351Z,0.53
2019-06-27T15:54:41.205Z,0.30
2019-06-27T15:57:29.048Z,0.57
2019-06-27T16:00:16.348Z,0.40
2019-06-27T16:03:03.506Z,0.90
2019-06-27T16:05:50.741Z,0.23
2019-06-27T16:08:38.311Z,0.30
2019-06-27T16:11:26.263Z,0.43
2019-06-27T16:14:13.994Z,0.33
2019-06-27T16:17:01.904Z,0.30
2019-06-27T16:19:49.467Z,0.20
2019-06-27T16:22:37.483Z,0.30
2019-06-27T16:25:25.206Z,0.30
2019-06-27T16:28:13.051Z,0.30
2019-06-27T16:31:00.665Z,0.30
2019-06-27T16:33:48.628Z,0.40
2019-06-27T16:36:36.418Z,0.60
2019-06-27T16:39:24.225Z,0.30
2019-06-27T16:42:11.459Z,0.20
2019-06-27T16:44:58.940Z,0.33
2019-06-27T16:47:46.063Z,0.30
2019-06-27T16:50:33.679Z,0.33
2019-06-27T16:53:21.775Z,0.40
2019-06-27T16:56:09.131Z,0.20
2019-06-27T16:58:56.887Z,0.20
2019-06-27T17:01:44.304Z,0.33
2019-06-27T17:04:31.913Z,0.20
2019-06-27T17:07:19.329Z,0.50
2019-06-27T17:10:07.105Z,0.30
2019-06-27T17:12:55.083Z,0.30
2019-06-27T17:15:42.951Z,0.30
2019-06-27T17:18:30.703Z,0.47
2019-06-27T17:21:18.616Z,0.70
2019-06-27T17:24:06.008Z,0.50
2019-06-27T17:26:53.796Z,2.63
2019-06-27T17:29:41.301Z,0.30
2019-06-27T17:32:29.009Z,0.30
2019-06-27T17:35:16.822Z,0.23
2019-06-27T17:38:04.494Z,0.40
2019-06-27T17:40:52.408Z,0.33
2019-06-27T17:43:41.501Z,0.23
2019-06-27T17:46:29.582Z,0.30
2019-06-27T17:49:17.310Z,0.40
2019-06-27T17:52:05.274Z,0.40
2019-06-27T17:54:52.859Z,0.30
2019-06-27T17:57:40.219Z,0.50
2019-06-27T18:00:27.638Z,0.40
2019-06-27T18:03:15.098Z,0.23
2019-06-27T18:06:02.625Z,0.30
2019-06-27T18:08:50.127Z,0.50
2019-06-27T18:11:37.920Z,0.40
2019-06-27T18:14:25.618Z,0.47
2019-06-27T18:17:13.065Z,0.20
2019-06-27T18:20:00.539Z,0.40
2019-06-27T18:22:48.292Z,0.50
2019-06-27T18:25:36.137Z,0.30
2019-06-27T18:28:23.498Z,0.33
2019-06-27T18:31:11.249Z,0.40
2019-06-27T18:33:59.010Z,0.30
2019-06-27T18:36:46.295Z,1.07
2019-06-27T18:39:34.278Z,6.10
2019-06-27T18:42:21.587Z,2.77
2019-06-27T18:45:09.205Z,0.30
2019-06-27T18:47:56.836Z,0.40
2019-06-27T18:50:44.439Z,0.40
2019-06-27T18:53:32.284Z,0.57
2019-06-27T18:56:19.479Z,0.50
2019-06-27T18:59:07.633Z,0.17
2019-06-27T19:01:55.451Z,0.30
2019-06-27T19:04:43.381Z,0.40
2019-06-27T19:07:44.481Z,0.40
2019-06-27T19:10:20.533Z,0.67
2019-06-27T19:13:08.355Z,0.47
2019-06-27T19:15:56.151Z,0.83
2019-06-27T19:18:43.778Z,0.70
2019-06-27T19:21:47.602Z,0.60
2019-06-27T19:24:49.190Z,0.50
2019-06-27T19:27:36.677Z,0.30
2019-06-27T19:30:24.037Z,0.30
2019-06-27T19:33:12.061Z,0.40
2019-06-27T19:36:02.991Z,0.33
2019-06-27T19:38:48.388Z,0.30
2019-06-27T19:41:35.928Z,0.47
2019-06-27T19:44:23.624Z,0.40
2019-06-27T19:47:11.436Z,0.40
2019-06-27T19:49:59.140Z,0.70
2019-06-27T19:52:46.892Z,0.47
2019-06-27T19:55:37.400Z,0.60
2019-06-27T19:58:23.105Z,0.30
2019-06-27T20:01:11.012Z,0.50
2019-06-27T20:03:59.104Z,1.43
2019-06-27T20:06:46.953Z,0.60
2019-06-27T20:09:34.660Z,0.57
2019-06-27T20:12:21.935Z,0.47
2019-06-27T20:15:09.261Z,0.40
2019-06-27T20:17:57.082Z,0.50
2019-06-27T20:20:44.865Z,0.47
2019-06-27T20:23:32.643Z,0.40
2019-06-27T20:26:20.203Z,1.73
2019-06-27T20:29:08.023Z,1.73
2019-06-27T20:31:55.919Z,0.50
2019-06-27T20:34:43.293Z,0.40
2019-06-27T20:37:30.576Z,0.80
2019-06-27T20:40:18.695Z,0.33
2019-06-27T20:43:06.182Z,0.80
2019-06-27T20:45:54.127Z,0.47
2019-06-27T20:48:43.411Z,0.60
2019-06-27T20:51:34.233Z,0.67
2019-06-27T20:54:21.877Z,0.70
2019-06-27T20:57:09.468Z,0.30
2019-06-27T20:59:56.914Z,0.70
2019-06-27T21:02:44.129Z,0.70
2019-06-27T21:05:31.775Z,0.57
2019-06-27T21:08:19.439Z,0.80
2019-06-27T21:11:06.934Z,0.73
2019-06-27T21:13:54.544Z,0.70
2019-06-27T21:16:42.177Z,0.80
2019-06-27T21:19:29.668Z,0.50
2019-06-27T21:22:16.906Z,0.50
2019-06-27T21:25:04.966Z,0.80
2019-06-27T21:27:52.290Z,1.10
2019-06-27T21:30:39.925Z,0.60
2019-06-27T21:33:27.635Z,0.80
2019-06-27T21:36:14.852Z,0.93
2019-06-27T21:39:07.618Z,0.80
2019-06-27T21:41:51.881Z,1.00
2019-06-27T21:44:40.131Z,1.80
2019-06-27T21:47:27.847Z,1.70
2019-06-27T21:50:16.517Z,1.17
2019-06-27T21:53:03.883Z,0.90
2019-06-27T21:55:51.570Z,0.90
2019-06-27T21:58:39.143Z,0.90
2019-06-27T22:01:27.521Z,0.80
2019-06-27T22:04:15.726Z,0.60
2019-06-27T22:07:03.341Z,0.70
2019-06-27T22:09:52.635Z,0.70
2019-06-27T22:12:40.281Z,0.73
2019-06-27T22:15:28.668Z,0.70
2019-06-27T22:18:17.479Z,0.80
2019-06-27T22:21:05.513Z,0.70
2019-06-27T22:23:53.792Z,0.80
2019-06-27T22:26:41.660Z,0.53
2019-06-27T22:29:29.380Z,0.53
2019-06-27T22:32:20.375Z,0.50
2019-06-27T22:35:08.856Z,0.60
2019-06-27T22:38:14.270Z,0.50
2019-06-27T22:41:30.283Z,0.40
2019-06-27T22:44:26.430Z,0.40
2019-06-27T22:47:35.363Z,0.50
2019-06-27T22:50:51.239Z,0.47
2019-06-27T22:53:57.830Z,0.30
2019-06-27T22:56:45.245Z,0.40
2019-06-27T22:59:36.109Z,0.40
2019-06-27T23:02:23.798Z,0.50
2019-06-27T23:05:12.143Z,0.40
2019-06-27T23:07:59.696Z,0.40
2019-06-27T23:10:49.188Z,0.30
2019-06-27T23:13:36.938Z,0.40
2019-06-27T23:16:25.133Z,0.37
2019-06-27T23:19:12.863Z,0.40
2019-06-27T23:22:00.857Z,0.30
2019-06-27T23:24:48.645Z,0.30
2019-06-27T23:27:36.395Z,0.40
2019-06-27T23:30:24.172Z,0.47
2019-06-27T23:33:12.183Z,0.43
2019-06-27T23:36:00.171Z,0.40
2019-06-27T23:38:49.081Z,0.30
2019-06-27T23:41:37.085Z,0.57
2019-06-27T23:44:24.981Z,0.30
2019-06-27T23:47:12.890Z,0.60
2019-06-27T23:50:04.104Z,0.50
2019-06-27T23:52:53.580Z,0.30
2019-06-27T23:55:41.640Z,0.50
2019-06-27T23:58:29.348Z,0.40
